Time;durP1;ratioP1;P1;durP2;ratioP2;P2;SDS_P1;SDS_P2;PMS_P1;PMS_P2;Temp;Humidity;BMP_temperature;BMP_pressure;BME280_temperature;BME280_humidity;BME280_pressure;Samples;Min_cycle;Max_cycle;Signal;HPM_P1;HPM_P2
2022/06/01 00:01:32;;;;;;;6.90;4.47;;;14.00;99.90;;;;;;5013055;28;20064;-73
2022/06/01 00:03:57;;;;;;;5.13;4.53;;;14.10;99.90;;;;;;5012949;28;20112;-73
2022/06/01 00:06:23;;;;;;;5.85;4.47;;;14.10;99.90;;;;;;5014434;28;20068;-74
2022/06/01 00:08:49;;;;;;;7.32;4.22;;;14.10;99.90;;;;;;5012887;28;20445;-74
2022/06/01 00:11:15;;;;;;;5.25;4.47;;;14.10;99.90;;;;;;5014121;28;20104;-73
2022/06/01 00:13:42;;;;;;;5.32;4.72;;;14.10;99.90;;;;;;5014123;28;20044;-73
2022/06/01 00:16:07;;;;;;;5.55;5.03;;;14.10;99.90;;;;;;5013989;28;20034;-73
2022/06/01 00:18:34;;;;;;;5.70;4.10;;;14.10;99.90;;;;;;5012827;28;20057;-73
2022/06/01 00:21:00;;;;;;;5.93;4.60;;;14.10;99.90;;;;;;5014053;28;20470;-74
2022/06/01 00:23:25;;;;;;;4.90;4.35;;;14.10;99.90;;;;;;5014029;28;20076;-74
2022/06/01 00:25:51;;;;;;;5.40;4.70;;;14.10;99.90;;;;;;5014042;28;20032;-73
2022/06/01 00:28:17;;;;;;;5.47;4.45;;;14.00;99.90;;;;;;5029513;28;20029;-73
2022/06/01 00:30:43;;;;;;;5.80;4.13;;;14.00;99.90;;;;;;5029072;28;20103;-73
2022/06/01 00:33:09;;;;;;;4.70;4.22;;;14.00;99.90;;;;;;5014091;28;20026;-73
2022/06/01 00:35:35;;;;;;;4.35;4.00;;;14.00;99.90;;;;;;5014166;28;20028;-73
2022/06/01 00:38:01;;;;;;;6.47;4.25;;;14.00;99.90;;;;;;5013964;28;20026;-73
2022/06/01 00:40:28;;;;;;;4.65;4.22;;;14.00;99.90;;;;;;5013984;28;20404;-74
2022/06/01 00:42:57;;;;;;;6.70;4.28;;;14.00;99.90;;;;;;5013861;28;20037;-73
2022/06/01 00:45:24;;;;;;;;;;;14.00;99.90;;;;;;5015400;28;20030;-74
2022/06/01 00:47:51;;;;;;;5.30;3.90;;;14.00;99.90;;;;;;5017698;28;20008;-74
2022/06/01 00:50:31;;;;;;;5.60;4.57;;;14.00;99.90;;;;;;5032939;28;20076;-74
2022/06/01 00:53:10;;;;;;;4.97;4.22;;;14.00;99.90;;;;;;5016440;28;20064;-73
2022/06/01 00:55:37;;;;;;;;;;;14.00;99.90;;;;;;5018214;28;20062;-73
2022/06/01 00:58:25;;;;;;;4.95;4.20;;;14.00;99.90;;;;;;5017508;28;19905;-73
2022/06/01 01:00:52;;;;;;;4.13;3.73;;;14.00;99.90;;;;;;5017243;28;20045;-73
2022/06/01 01:03:20;;;;;;;6.20;3.70;;;14.00;99.90;;;;;;5017384;28;20040;-74
2022/06/01 01:05:54;;;;;;;7.47;3.80;;;13.90;99.90;;;;;;5017078;28;20558;-74
2022/06/01 01:08:20;;;;;;;3.97;3.67;;;13.90;99.90;;;;;;5017879;28;20544;-74
2022/06/01 01:10:45;;;;;;;4.13;3.65;;;13.90;99.90;;;;;;5017243;28;20109;-74
2022/06/01 01:13:14;;;;;;;4.68;4.28;;;13.90;99.90;;;;;;5017296;28;20036;-75
2022/06/01 01:15:58;;;;;;;4.30;3.77;;;13.90;99.90;;;;;;5015866;28;20046;-74
2022/06/01 01:18:36;;;;;;;4.35;4.05;;;13.80;99.90;;;;;;5015614;28;20022;-73
2022/06/01 01:21:04;;;;;;;4.38;3.60;;;13.80;99.90;;;;;;5017103;28;20057;-74
2022/06/01 01:23:47;;;;;;;4.35;3.95;;;13.80;99.90;;;;;;5016699;28;20482;-74
2022/06/01 01:26:14;;;;;;;3.42;3.22;;;13.80;99.90;;;;;;5032750;28;20029;-74
2022/06/01 01:28:41;;;;;;;5.72;3.67;;;13.80;99.90;;;;;;5032148;28;20105;-74
2022/06/01 01:31:16;;;;;;;6.38;3.65;;;13.90;99.90;;;;;;5015271;28;20148;-74
2022/06/01 01:33:43;;;;;;;7.15;3.60;;;13.90;99.90;;;;;;5016902;28;20022;-74
2022/06/01 01:36:11;;;;;;;4.40;4.07;;;13.80;99.90;;;;;;5015444;28;20033;-75
2022/06/01 01:39:10;;;;;;;3.97;3.50;;;13.80;99.90;;;;;;5016772;28;20026;-75
2022/06/01 01:41:46;;;;;;;3.72;3.40;;;13.80;99.90;;;;;;5016865;28;20037;-75
2022/06/01 01:44:25;;;;;;;4.35;3.92;;;13.80;99.90;;;;;;5016715;28;20034;-75
2022/06/01 01:46:52;;;;;;;5.47;4.00;;;13.80;99.90;;;;;;5032546;28;20034;-75
2022/06/01 01:49:23;;;;;;;7.22;3.60;;;13.90;99.90;;;;;;5016549;28;20038;-75
2022/06/01 01:51:52;;;;;;;3.90;3.60;;;13.80;99.90;;;;;;5016771;28;20114;-75
2022/06/01 01:54:32;;;;;;;4.40;3.42;;;13.90;99.90;;;;;;5016973;28;20113;-76
2022/06/01 01:57:00;;;;;;;3.97;3.63;;;13.80;99.90;;;;;;5030745;28;20034;-75
2022/06/01 01:59:45;;;;;;;3.73;3.37;;;13.80;99.90;;;;;;5016454;28;20030;-76
2022/06/01 02:02:18;;;;;;;11.30;4.00;;;13.80;99.90;;;;;;5016694;28;20049;-76
2022/06/01 02:07:59;;;;;;;3.05;2.85;;;13.70;99.90;;;;;;5016350;28;20044;-76
2022/06/01 02:13:12;;;;;;;4.55;4.15;;;13.50;99.90;;;;;;5015928;28;20116;-76
2022/06/01 02:15:43;;;;;;;4.53;4.13;;;13.40;99.90;;;;;;5016193;28;20101;-76
2022/06/01 02:18:16;;;;;;;5.50;3.83;;;13.40;99.90;;;;;;5016129;28;20355;-76
2022/06/01 02:20:47;;;;;;;3.90;3.55;;;13.30;99.90;;;;;;5016091;28;20110;-76
2022/06/01 02:23:14;;;;;;;4.40;3.78;;;13.20;99.90;;;;;;5015710;28;20022;-76
2022/06/01 02:25:43;;;;;;;4.07;3.78;;;13.20;99.90;;;;;;5015890;28;20084;-77
2022/06/01 02:28:09;;;;;;;6.55;4.68;;;13.10;99.90;;;;;;5016025;28;20493;-76
2022/06/01 02:30:39;;;;;;;5.63;4.50;;;13.00;99.90;;;;;;5015913;28;20058;-76
2022/06/01 02:33:09;;;;;;;4.90;4.50;;;13.00;99.90;;;;;;5015763;28;20026;-76
2022/06/01 02:35:38;;;;;;;5.25;4.70;;;13.00;99.90;;;;;;5014372;28;20068;-77
2022/06/01 02:38:10;;;;;;;5.57;5.07;;;12.90;99.90;;;;;;5014391;28;20022;-77
2022/06/01 02:40:37;;;;;;;5.25;4.75;;;12.90;99.90;;;;;;5014574;28;20068;-77
2022/06/01 02:43:03;;;;;;;5.68;4.90;;;12.90;99.90;;;;;;5014613;28;20052;-77
2022/06/01 02:45:28;;;;;;;8.18;5.38;;;12.90;99.90;;;;;;5030714;28;20116;-77
2022/06/01 02:47:58;;;;;;;7.53;6.22;;;12.90;99.90;;;;;;5030887;28;20022;-76
2022/06/01 02:50:26;;;;;;;6.85;5.00;;;12.90;99.90;;;;;;5015459;28;20022;-77
2022/06/01 02:52:53;;;;;;;6.82;5.68;;;12.90;99.90;;;;;;5015317;28;20033;-77
2022/06/01 02:55:21;;;;;;;6.18;5.57;;;12.90;99.90;;;;;;5014248;28;20048;-77
2022/06/01 02:57:47;;;;;;;5.45;4.95;;;12.90;99.90;;;;;;5015254;28;20069;-77
2022/06/01 03:00:19;;;;;;;8.30;6.13;;;12.80;99.90;;;;;;5015027;28;20029;-76
2022/06/01 03:02:55;;;;;;;6.75;5.93;;;12.90;99.90;;;;;;5015356;28;20107;-77
2022/06/01 03:05:25;;;;;;;6.18;5.57;;;12.80;99.90;;;;;;5013883;28;20034;-77
2022/06/01 03:07:51;;;;;;;6.70;5.85;;;12.80;99.90;;;;;;5014044;28;20382;-77
2022/06/01 03:10:17;;;;;;;7.82;5.75;;;12.80;99.90;;;;;;5013927;28;20057;-76
2022/06/01 03:12:43;;;;;;;7.30;6.03;;;12.80;99.90;;;;;;5014386;28;20445;-77
2022/06/01 03:15:11;;;;;;;6.57;5.57;;;12.80;99.90;;;;;;5013760;28;20021;-77
2022/06/01 03:17:37;;;;;;;6.43;5.75;;;12.80;99.90;;;;;;5014632;28;20045;-77
2022/06/01 03:20:08;;;;;;;7.35;6.40;;;12.80;99.90;;;;;;5014935;28;20117;-77
2022/06/01 03:22:35;;;;;;;6.90;6.30;;;12.80;99.90;;;;;;5014934;28;20355;-76
2022/06/01 03:25:01;;;;;;;5.55;4.93;;;12.70;99.90;;;;;;5013955;28;20030;-76
2022/06/01 03:27:27;;;;;;;6.07;4.80;;;12.70;99.90;;;;;;5014536;28;20030;-77
2022/06/01 03:29:52;;;;;;;5.97;5.15;;;12.70;99.90;;;;;;5014616;28;20046;-77
2022/06/01 03:32:18;;;;;;;5.78;5.18;;;12.70;99.90;;;;;;5014447;28;20026;-77
2022/06/01 03:34:43;;;;;;;5.70;5.20;;;12.70;99.90;;;;;;5015160;28;20509;-77
2022/06/01 03:37:09;;;;;;;5.63;5.15;;;12.80;99.90;;;;;;5014403;28;20034;-77
2022/06/01 03:39:35;;;;;;;4.90;4.47;;;12.70;99.90;;;;;;5014794;28;20034;-77
2022/06/01 03:42:00;;;;;;;6.07;5.50;;;12.80;99.90;;;;;;5014269;28;20029;-77
2022/06/01 03:47:10;;;;;;;5.20;4.72;;;12.80;99.90;;;;;;5014288;28;20041;-76
2022/06/01 03:49:37;;;;;;;5.10;4.70;;;12.90;99.90;;;;;;5013401;28;20389;-78
2022/06/01 03:52:03;;;;;;;5.18;4.68;;;12.90;99.90;;;;;;5013168;28;20437;-77
2022/06/01 03:54:30;;;;;;;5.10;4.47;;;12.90;99.90;;;;;;5013465;28;20065;-77
2022/06/01 03:56:56;;;;;;;5.72;4.88;;;13.00;99.90;;;;;;5014252;28;20034;-76
2022/06/01 03:59:21;;;;;;;5.20;4.32;;;13.00;99.90;;;;;;5014354;28;20029;-77
2022/06/01 04:01:47;;;;;;;7.68;4.45;;;13.00;99.90;;;;;;5013048;28;20374;-77
2022/06/01 04:04:14;;;;;;;4.60;4.20;;;13.10;99.90;;;;;;5029377;28;20044;-77
2022/06/01 04:06:39;;;;;;;5.13;4.65;;;13.10;99.90;;;;;;5013143;28;20553;-77
2022/06/01 04:09:05;;;;;;;6.95;4.85;;;13.10;99.90;;;;;;5014276;28;20101;-77
2022/06/01 04:11:31;;;;;;;4.50;4.03;;;13.10;99.90;;;;;;5014037;28;20022;-76
2022/06/01 04:13:57;;;;;;;6.20;4.63;;;13.20;99.90;;;;;;5029676;28;20026;-77
2022/06/01 04:16:22;;;;;;;5.15;4.65;;;13.20;99.90;;;;;;5013915;28;20029;-77
2022/06/01 04:18:49;;;;;;;4.82;4.43;;;13.20;99.90;;;;;;5029170;28;20045;-77
2022/06/01 04:21:18;;;;;;;4.57;4.18;;;13.20;99.90;;;;;;5013814;28;20025;-77
2022/06/01 04:23:43;;;;;;;;;;;13.20;99.90;;;;;;5013188;28;20030;-80
2022/06/01 04:26:09;;;;;;;4.45;4.05;;;13.20;99.90;;;;;;5014052;28;19928;-80
2022/06/01 04:28:35;;;;;;;5.07;4.20;;;13.30;99.90;;;;;;5013679;28;20493;-78
2022/06/01 04:31:00;;;;;;;4.85;4.00;;;13.30;99.90;;;;;;5013726;28;20056;-78
2022/06/01 04:33:29;;;;;;;4.47;3.95;;;13.30;99.90;;;;;;5013651;28;20018;-77
2022/06/01 04:35:55;;;;;;;5.88;4.45;;;13.40;99.90;;;;;;5013396;28;20038;-78
2022/06/01 04:38:20;;;;;;;4.07;3.65;;;13.40;99.90;;;;;;5013851;28;20393;-80
2022/06/01 04:40:48;;;;;;;4.97;4.00;;;13.40;99.90;;;;;;5028674;28;20029;-77
2022/06/01 04:43:20;;;;;;;5.67;4.03;;;13.40;99.90;;;;;;5012359;28;20489;-77
2022/06/01 04:45:48;;;;;;;4.20;3.80;;;13.50;99.90;;;;;;5013917;28;20026;-77
2022/06/01 04:48:14;;;;;;;3.85;3.30;;;13.50;99.90;;;;;;5028616;28;20041;-77
2022/06/01 04:50:42;;;;;;;3.78;3.35;;;13.60;99.90;;;;;;5013950;28;20029;-77
2022/06/01 04:53:11;;;;;;;4.10;3.70;;;13.60;99.90;;;;;;5012405;28;20360;-77
2022/06/01 04:55:37;;;;;;;3.15;2.95;;;13.60;99.90;;;;;;5013529;28;20026;-74
2022/06/01 04:58:03;;;;;;;5.25;3.35;;;13.70;99.90;;;;;;5013148;28;20033;-77
2022/06/01 05:00:28;;;;;;;3.22;2.92;;;13.70;99.90;;;;;;5013272;28;20101;-77
2022/06/01 05:02:54;;;;;;;4.70;3.40;;;13.80;99.90;;;;;;5013676;28;20390;-78
2022/06/01 05:05:20;;;;;;;3.33;3.03;;;13.80;99.90;;;;;;5028820;28;20377;-78
2022/06/01 05:07:45;;;;;;;2.83;2.63;;;13.90;99.90;;;;;;5013573;28;20033;-78
2022/06/01 05:10:11;;;;;;;3.25;2.72;;;13.90;99.90;;;;;;5028669;28;20018;-77
2022/06/01 05:12:37;;;;;;;2.72;2.53;;;14.00;99.90;;;;;;5013865;28;20573;-78
2022/06/01 05:15:03;;;;;;;2.40;2.30;;;14.10;99.90;;;;;;5013400;28;20372;-78
2022/06/01 05:17:31;;;;;;;5.43;2.38;;;14.10;99.90;;;;;;5013232;28;20038;-78
2022/06/01 05:19:57;;;;;;;1.90;1.80;;;14.20;99.90;;;;;;5013232;28;20109;-79
2022/06/01 05:22:23;;;;;;;2.10;1.90;;;14.30;99.90;;;;;;5013252;28;20097;-78
2022/06/01 05:24:48;;;;;;;1.58;1.48;;;14.40;99.90;;;;;;5012022;28;20076;-78
2022/06/01 05:27:14;;;;;;;6.03;1.42;;;14.50;99.90;;;;;;5012916;28;20367;-78
2022/06/01 05:29:39;;;;;;;1.27;1.17;;;14.60;99.90;;;;;;5011995;28;20065;-79
2022/06/01 05:32:06;;;;;;;1.20;1.15;;;14.80;99.90;;;;;;5013793;28;20378;-79
2022/06/01 05:34:41;;;;;;;0.90;0.90;;;14.90;99.90;;;;;;5031615;28;20049;-79
2022/06/01 05:37:07;;;;;;;0.95;0.95;;;15.00;99.90;;;;;;5016665;28;20092;-79
2022/06/01 05:39:32;;;;;;;2.10;0.90;;;15.10;99.90;;;;;;5016486;28;20034;-78
2022/06/01 05:41:58;;;;;;;0.82;0.82;;;15.20;99.90;;;;;;5016889;28;20061;-78
2022/06/01 05:44:24;;;;;;;1.05;0.85;;;15.30;99.90;;;;;;5031519;28;20117;-78
2022/06/01 05:46:54;;;;;;;1.05;0.93;;;15.40;99.90;;;;;;5016434;28;20030;-78
2022/06/01 05:49:19;;;;;;;2.30;1.20;;;15.50;99.90;;;;;;5016109;28;20492;-79
2022/06/01 05:51:45;;;;;;;0.98;0.90;;;15.60;99.90;;;;;;5031356;28;20029;-78
2022/06/01 05:54:11;;;;;;;0.80;0.80;;;15.70;99.90;;;;;;5014976;28;20026;-78
2022/06/01 05:56:36;;;;;;;0.80;0.80;;;15.70;99.90;;;;;;5016291;28;20038;-78
2022/06/01 05:59:02;;;;;;;1.88;0.77;;;15.80;99.90;;;;;;5016311;28;20033;-78
2022/06/01 06:01:29;;;;;;;1.25;0.70;;;15.80;99.90;;;;;;5016311;28;20030;-79
2022/06/01 06:03:54;;;;;;;2.00;1.70;;;15.90;99.90;;;;;;5014996;28;20029;-79
2022/06/01 06:06:22;;;;;;;0.80;0.80;;;16.00;99.90;;;;;;5016368;28;20386;-78
2022/06/01 06:08:51;;;;;;;1.05;0.70;;;16.10;99.90;;;;;;5014885;28;20034;-79
2022/06/01 06:11:18;;;;;;;1.85;1.15;;;16.20;99.90;;;;;;5016012;28;20030;-79
2022/06/01 06:13:44;;;;;;;2.45;0.68;;;16.70;99.90;;;;;;5016236;28;20505;-79
2022/06/01 06:16:11;;;;;;;5.45;0.98;;;17.20;99.90;;;;;;5015949;28;20474;-79
2022/06/01 06:18:37;;;;;;;0.95;0.75;;;17.80;99.90;;;;;;5015927;28;20129;-79
2022/06/01 06:21:03;;;;;;;2.58;0.55;;;18.30;99.90;;;;;;5015621;28;20109;-79
2022/06/01 06:23:29;;;;;;;1.67;0.40;;;18.70;99.90;;;;;;5014492;28;20022;-79
2022/06/01 06:25:55;;;;;;;1.35;0.50;;;19.00;99.90;;;;;;5015769;28;20033;-79
2022/06/01 06:28:20;;;;;;;0.20;0.20;;;19.20;99.90;;;;;;5016750;28;20041;-77
2022/06/01 06:30:46;;;;;;;2.40;0.40;;;19.50;99.90;;;;;;5013914;28;20449;-76
2022/06/01 06:33:12;;;;;;;0.55;0.40;;;19.80;99.90;;;;;;5015623;28;20022;-77
2022/06/01 06:35:37;;;;;;;1.85;0.40;;;19.90;99.90;;;;;;5015459;28;20072;-77
2022/06/01 06:38:04;;;;;;;2.05;0.30;;;19.90;99.90;;;;;;5015221;28;20033;-76
2022/06/01 06:40:30;;;;;;;0.38;0.38;;;20.10;99.90;;;;;;5015577;28;20022;-77
2022/06/01 06:42:56;;;;;;;1.13;0.40;;;20.40;99.90;;;;;;5013815;28;20025;-78
2022/06/01 06:45:22;;;;;;;2.83;0.50;;;20.50;99.90;;;;;;5015398;28;20032;-78
2022/06/01 06:47:48;;;;;;;2.25;0.40;;;20.70;99.90;;;;;;5015779;28;20115;-78
2022/06/01 06:50:15;;;;;;;0.70;0.45;;;20.50;99.90;;;;;;5015071;28;20417;-77
2022/06/01 06:52:41;;;;;;;0.40;0.40;;;20.50;99.90;;;;;;5015327;28;20105;-78
2022/06/01 06:55:08;;;;;;;1.95;0.70;;;20.40;99.90;;;;;;5015059;28;20053;-78
2022/06/01 06:57:34;;;;;;;0.40;0.40;;;20.30;99.90;;;;;;5013973;28;20034;-77
2022/06/01 07:00:00;;;;;;;1.85;0.40;;;20.40;99.90;;;;;;5015372;28;20036;-80
2022/06/01 07:02:26;;;;;;;2.17;0.63;;;20.50;99.90;;;;;;5014441;28;20109;-80
2022/06/01 07:04:51;;;;;;;1.70;0.40;;;20.40;99.90;;;;;;5030386;28;20454;-80
2022/06/01 07:07:17;;;;;;;1.23;0.70;;;20.30;99.90;;;;;;5013795;28;20390;-80
2022/06/01 07:09:43;;;;;;;0.55;0.52;;;20.40;99.90;;;;;;5015079;28;20061;-79
2022/06/01 07:12:12;;;;;;;2.78;0.70;;;20.50;99.90;;;;;;5014759;28;20032;-79
2022/06/01 07:14:37;;;;;;;0.65;0.52;;;20.70;99.90;;;;;;5013729;28;20481;-81
2022/06/01 07:17:03;;;;;;;0.95;0.60;;;20.40;99.90;;;;;;5014835;28;20038;-80
2022/06/01 07:19:29;;;;;;;2.60;0.90;;;20.60;99.90;;;;;;5013492;28;20026;-79
2022/06/01 07:21:55;;;;;;;0.70;0.70;;;20.80;99.90;;;;;;5014010;28;20022;-79
2022/06/01 07:24:21;;;;;;;1.55;0.50;;;20.70;99.90;;;;;;5014575;28;20036;-79
2022/06/01 07:26:48;;;;;;;3.65;0.80;;;20.80;99.90;;;;;;5014921;28;20180;-80
2022/06/01 07:29:16;;;;;;;2.00;0.70;;;20.90;99.90;;;;;;5013170;28;20038;-80
2022/06/01 07:31:44;;;;;;;0.82;0.50;;;20.90;99.90;;;;;;5014805;28;20056;-80
2022/06/01 07:34:10;;;;;;;0.50;0.50;;;20.80;99.90;;;;;;5014695;28;20133;-80
2022/06/01 07:36:36;;;;;;;1.15;0.60;;;21.10;99.90;;;;;;5014573;28;20034;-80
2022/06/01 07:44:43;;;;;;;1.65;0.50;;;21.40;99.90;;;;;;5014196;28;20172;-80
2022/06/01 07:47:09;;;;;;;0.50;0.50;;;21.30;99.90;;;;;;5013146;28;20588;-80
2022/06/01 07:49:36;;;;;;;0.80;0.70;;;21.40;99.90;;;;;;5014486;28;20045;-80
2022/06/01 07:52:03;;;;;;;0.50;0.50;;;21.70;99.90;;;;;;5029734;28;20111;-80
2022/06/01 07:54:29;;;;;;;1.40;0.80;;;21.90;99.00;;;;;;5013625;28;20033;-80
2022/06/01 07:56:55;;;;;;;2.33;0.82;;;22.00;99.00;;;;;;5014179;28;20030;-80
2022/06/01 07:59:20;;;;;;;2.38;0.47;;;22.00;98.40;;;;;;5014256;28;20359;-81
2022/06/01 08:01:46;;;;;;;2.15;0.85;;;22.20;96.70;;;;;;5014196;28;20034;-80
2022/06/01 08:04:13;;;;;;;0.63;0.63;;;22.20;96.60;;;;;;5012901;28;20028;-77
2022/06/01 08:06:38;;;;;;;2.20;0.60;;;22.50;95.90;;;;;;5014579;28;20382;-77
2022/06/01 08:09:05;;;;;;;0.68;0.40;;;22.60;93.80;;;;;;5012862;28;20033;-77
2022/06/01 08:14:18;;;;;;;0.80;0.70;;;22.90;93.10;;;;;;4993198;28;20129;-78
2022/06/01 08:16:47;;;;;;;1.10;0.52;;;23.00;92.70;;;;;;5014106;28;20072;-77
2022/06/01 08:19:17;;;;;;;2.30;0.50;;;22.90;91.00;;;;;;5014146;28;20033;-77
2022/06/01 08:21:43;;;;;;;2.88;0.82;;;22.90;91.10;;;;;;5029626;28;20037;-80
2022/06/01 08:24:09;;;;;;;3.42;0.47;;;22.90;89.60;;;;;;5012779;28;20080;-77
2022/06/01 08:26:35;;;;;;;1.90;0.60;;;22.90;89.00;;;;;;5013758;28;20030;-77
2022/06/01 08:29:02;;;;;;;1.23;0.40;;;22.80;88.20;;;;;;5013925;28;20061;-77
2022/06/01 08:31:29;;;;;;;2.28;0.80;;;22.70;90.50;;;;;;5012454;28;20076;-80
2022/06/01 08:33:56;;;;;;;0.45;0.40;;;23.10;90.60;;;;;;5012934;28;20432;-78
2022/06/01 08:36:22;;;;;;;0.60;0.60;;;23.30;87.00;;;;;;5013819;28;20056;-77
2022/06/01 08:38:47;;;;;;;0.43;0.43;;;23.50;85.20;;;;;;5013508;28;20034;-77
2022/06/01 08:41:15;;;;;;;0.82;0.80;;;23.40;84.20;;;;;;5013612;28;20055;-77
2022/06/01 08:43:53;;;;;;;1.80;0.65;;;23.40;83.20;;;;;;5012882;28;20027;-77
2022/06/01 08:46:20;;;;;;;1.98;0.60;;;23.80;82.30;;;;;;5012521;28;20088;-78
2022/06/01 08:48:52;;;;;;;0.50;0.50;;;23.80;80.30;;;;;;5012485;28;20030;-77
2022/06/01 08:51:23;;;;;;;1.10;0.70;;;24.00;80.60;;;;;;5013768;28;20044;-77
2022/06/01 08:53:49;;;;;;;3.15;0.38;;;24.00;79.20;;;;;;5013892;28;20088;-77
2022/06/01 08:56:19;;;;;;;0.50;0.50;;;24.40;79.40;;;;;;5012225;28;20046;-77
2022/06/01 08:59:09;;;;;;;0.30;0.30;;;24.80;77.90;;;;;;5012603;28;20429;-77
2022/06/01 09:01:53;;;;;;;1.13;0.50;;;25.30;74.10;;;;;;5013670;28;20030;-77
2022/06/01 09:04:58;;;;;;;0.85;0.60;;;25.40;73.30;;;;;;5013933;28;20113;-77
2022/06/01 09:07:33;;;;;;;0.47;0.47;;;25.50;70.00;;;;;;5016097;28;20033;-77
2022/06/01 09:10:17;;;;;;;2.30;0.60;;;25.80;68.50;;;;;;5017369;28;20488;-77
2022/06/01 09:12:44;;;;;;;1.85;0.32;;;25.90;67.60;;;;;;5017057;28;20022;-77
2022/06/01 09:15:35;;;;;;;2.20;0.50;;;26.00;66.20;;;;;;5015658;28;20026;-77
2022/06/01 09:18:01;;;;;;;0.88;0.63;;;25.90;64.70;;;;;;5016579;28;20362;-77
2022/06/01 09:23:15;;;;;;;0.70;0.50;;;26.20;65.00;;;;;;5016723;28;20057;-76
2022/06/01 09:25:52;;;;;;;0.85;0.38;;;26.20;62.70;;;;;;5017005;28;20037;-76
2022/06/01 09:28:22;;;;;;;1.00;0.40;;;26.00;62.10;;;;;;5017134;28;20037;-76
2022/06/01 09:31:01;;;;;;;3.55;0.60;;;25.80;63.90;;;;;;5015005;28;20235;-76
2022/06/01 09:33:28;;;;;;;3.00;0.55;;;25.90;63.30;;;;;;5015663;28;20041;-78
2022/06/01 09:36:09;;;;;;;1.17;0.60;;;25.70;62.00;;;;;;5032038;28;20076;-76
2022/06/01 09:38:46;;;;;;;0.43;0.43;;;25.70;62.60;;;;;;5016761;28;20022;-76
2022/06/01 09:41:31;;;;;;;0.30;0.30;;;25.80;63.90;;;;;;5017063;28;20037;-79
2022/06/01 09:44:06;;;;;;;2.03;0.73;;;26.10;62.10;;;;;;5016806;28;20081;-77
2022/06/01 09:46:39;;;;;;;1.70;0.57;;;26.50;60.60;;;;;;5015437;28;20469;-76
2022/06/01 09:49:11;;;;;;;3.53;0.65;;;26.70;61.20;;;;;;5016497;28;20101;-76
2022/06/01 09:51:41;;;;;;;0.90;0.60;;;27.10;58.50;;;;;;5015397;28;20083;-76
2022/06/01 09:54:22;;;;;;;1.75;0.57;;;27.30;57.90;;;;;;5016528;28;20029;-76
2022/06/01 09:56:49;;;;;;;0.57;0.40;;;27.40;57.70;;;;;;5031685;28;20034;-76
2022/06/01 10:08:25;;;;;;;2.53;0.60;;;27.70;55.10;;;;;;5016223;28;20505;-76
2022/06/01 10:10:58;;;;;;;0.45;0.30;;;27.30;55.60;;;;;;5015186;28;20029;-75
2022/06/01 10:13:38;;;;;;;1.30;0.60;;;27.50;56.60;;;;;;5016250;28;20026;-75
2022/06/01 10:16:29;;;;;;;1.88;0.60;;;28.00;53.50;;;;;;5016036;28;20030;-76
2022/06/01 10:18:59;;;;;;;1.20;0.50;;;27.90;53.40;;;;;;5013907;28;20516;-75
2022/06/01 10:21:30;;;;;;;2.47;0.57;;;28.00;53.90;;;;;;5015917;28;20102;-75
2022/06/01 10:24:12;;;;;;;1.77;0.60;;;28.00;53.40;;;;;;5015890;28;20076;-75
2022/06/01 10:26:43;;;;;;;0.63;0.40;;;28.20;54.80;;;;;;5015737;28;20041;-77
2022/06/01 10:29:15;;;;;;;0.47;0.30;;;28.70;52.60;;;;;;5015789;28;20040;-75
2022/06/01 10:31:46;;;;;;;1.35;0.50;;;28.40;50.50;;;;;;5014367;28;20046;-75
2022/06/01 10:34:30;;;;;;;1.80;0.75;;;28.10;50.40;;;;;;5014662;28;20030;-74
2022/06/01 10:37:16;;;;;;;0.70;0.70;;;28.00;50.90;;;;;;5015776;28;20030;-76
2022/06/01 10:40:06;;;;;;;4.43;1.00;;;27.10;52.40;;;;;;5015629;28;20026;-77
2022/06/01 10:46:00;;;;;;;1.55;0.60;;;27.70;52.30;;;;;;5015307;28;20402;-77
2022/06/01 10:48:32;;;;;;;0.45;0.30;;;28.40;50.70;;;;;;5015664;28;20069;-75
2022/06/01 10:51:36;;;;;;;1.55;0.50;;;28.50;50.80;;;;;;5030850;28;20212;-75
2022/06/01 10:54:03;;;;;;;1.00;0.40;;;29.50;49.20;;;;;;4954780;29;20491;-75
2022/06/01 10:56:29;;;;;;;2.05;0.60;;;29.30;46.90;;;;;;4938920;29;20043;-75
2022/06/01 10:59:01;;;;;;;1.02;0.45;;;28.70;48.70;;;;;;4954653;29;20480;-75
2022/06/01 11:01:41;;;;;;;4.10;0.50;;;29.10;48.30;;;;;;4938512;29;20031;-77
2022/06/01 11:04:39;;;;;;;2.13;0.80;;;29.20;46.40;;;;;;4954794;29;20542;-75
2022/06/01 11:07:10;;;;;;;0.68;0.50;;;29.00;47.70;;;;;;4938912;29;20387;-75
2022/06/01 11:09:56;;;;;;;1.63;0.40;;;28.80;46.60;;;;;;4938404;29;20067;-75
2022/06/01 11:12:27;;;;;;;0.60;0.60;;;28.90;47.60;;;;;;4954516;29;20070;-75
2022/06/01 11:15:10;;;;;;;0.32;0.30;;;29.30;46.20;;;;;;4938336;29;20027;-75
2022/06/01 11:17:45;;;;;;;1.15;0.50;;;29.90;46.00;;;;;;4938320;29;20476;-75
2022/06/01 11:20:25;;;;;;;1.65;0.40;;;29.70;44.00;;;;;;4954332;28;20027;-75
2022/06/01 11:23:09;;;;;;;3.40;0.93;;;30.00;44.20;;;;;;4954327;28;20035;-76
2022/06/01 11:26:14;;;;;;;2.25;0.50;;;30.80;43.00;;;;;;5004503;28;20034;-75
2022/06/01 11:28:52;;;;;;;1.73;0.60;;;30.70;41.10;;;;;;5014834;28;20462;-76
2022/06/01 11:31:19;;;;;;;0.57;0.57;;;31.10;40.90;;;;;;5029461;28;20520;-76
2022/06/01 11:34:26;;;;;;;0.90;0.40;;;30.90;38.50;;;;;;5014767;28;20034;-76
2022/06/01 11:37:01;;;;;;;1.50;0.40;;;30.70;38.80;;;;;;4954031;29;20035;-76
2022/06/01 11:39:39;;;;;;;3.10;0.45;;;30.60;38.60;;;;;;5006433;28;20117;-76
2022/06/01 11:42:23;;;;;;;1.27;0.50;;;31.10;38.40;;;;;;5014744;28;20030;-76
2022/06/01 11:44:58;;;;;;;0.85;0.50;;;31.10;36.40;;;;;;5013212;28;20434;-77
2022/06/01 11:47:25;;;;;;;1.15;0.40;;;31.20;37.20;;;;;;5014274;28;20025;-77
2022/06/01 11:50:25;;;;;;;1.63;0.60;;;31.30;35.40;;;;;;5013179;28;20187;-76
2022/06/01 11:52:56;;;;;;;4.07;1.50;;;31.00;33.30;;;;;;5014538;28;20045;-77
2022/06/01 11:55:22;;;;;;;0.47;0.40;;;31.60;33.30;;;;;;5014213;28;20030;-78
2022/06/01 11:57:54;;;;;;;1.38;0.45;;;31.70;31.30;;;;;;5028925;28;20497;-78
2022/06/01 12:00:31;;;;;;;1.63;0.35;;;31.90;32.50;;;;;;5014198;28;20101;-78
2022/06/01 12:03:13;;;;;;;0.57;0.50;;;32.40;33.00;;;;;;5012955;28;20029;-77
2022/06/01 12:06:01;;;;;;;1.00;0.20;;;32.80;32.10;;;;;;5012533;28;20082;-78
2022/06/01 12:08:44;;;;;;;1.30;0.50;;;33.10;31.80;;;;;;5014251;28;20041;-77
2022/06/01 12:11:52;;;;;;;1.20;0.20;;;32.30;32.40;;;;;;5013835;28;20466;-77
2022/06/01 12:14:38;;;;;;;0.47;0.40;;;31.70;32.10;;;;;;4953380;29;20039;-77
2022/06/01 12:17:17;;;;;;;1.48;0.40;;;31.20;34.00;;;;;;4953678;28;20039;-77
2022/06/01 12:19:51;;;;;;;;;;;31.00;31.30;;;;;;4953786;29;20543;-76
2022/06/01 12:28:35;;;;;;;1.90;0.50;;;31.30;33.40;;;;;;4953590;29;20102;-77
2022/06/01 12:31:13;;;;;;;0.55;0.50;;;31.80;32.10;;;;;;4937026;29;20051;-77
2022/06/01 12:34:03;;;;;;;1.55;0.40;;;31.60;32.40;;;;;;4953700;29;20039;-77
2022/06/01 12:36:37;;;;;;;0.60;0.60;;;31.10;32.80;;;;;;4953292;29;20059;-77
2022/06/01 12:39:08;;;;;;;3.28;0.68;;;31.30;33.40;;;;;;4937199;29;20036;-78
2022/06/01 12:41:36;;;;;;;0.30;0.30;;;31.00;33.00;;;;;;4955977;28;20124;-77
2022/06/01 12:44:07;;;;;;;1.97;0.40;;;31.00;33.70;;;;;;4945616;28;20027;-77
2022/06/01 12:46:39;;;;;;;0.85;0.50;;;31.10;34.60;;;;;;5016359;28;20478;-77
2022/06/01 12:49:41;;;;;;;1.90;0.60;;;31.70;34.60;;;;;;5017003;28;20025;-77
2022/06/01 12:52:15;;;;;;;0.30;0.30;;;31.50;32.70;;;;;;5017731;28;20025;-78
2022/06/01 12:54:51;;;;;;;0.63;0.30;;;32.20;32.50;;;;;;5017953;28;20052;-77
2022/06/01 12:57:31;;;;;;;1.02;0.50;;;32.50;30.70;;;;;;5017577;28;20029;-77
2022/06/01 13:00:08;;;;;;;3.50;0.55;;;32.10;32.10;;;;;;5017426;28;20499;-77
2022/06/01 13:02:39;;;;;;;1.80;0.83;;;32.10;32.60;;;;;;5016353;28;20033;-77
2022/06/01 13:05:08;;;;;;;0.70;0.60;;;31.60;34.20;;;;;;5015926;28;20295;-77
2022/06/01 13:07:38;;;;;;;0.30;0.30;;;31.10;32.70;;;;;;5017433;28;20042;-77
2022/06/01 13:10:11;;;;;;;0.68;0.40;;;30.50;33.20;;;;;;5016058;28;20064;-77
2022/06/01 13:12:37;;;;;;;2.67;0.55;;;30.20;33.80;;;;;;5015930;28;20034;-77
2022/06/01 13:15:26;;;;;;;1.13;0.47;;;29.70;34.90;;;;;;5032981;28;20026;-77
2022/06/01 13:17:59;;;;;;;;;;;30.00;35.30;;;;;;5016821;28;20041;-77
2022/06/01 13:20:41;;;;;;;2.72;1.13;;;30.10;35.30;;;;;;5017582;28;19911;-77
2022/06/01 13:23:43;;;;;;;1.20;0.60;;;29.90;35.60;;;;;;5016786;28;20496;-77
2022/06/01 13:26:12;;;;;;;2.28;0.50;;;30.00;35.70;;;;;;5017076;28;20034;-77
2022/06/01 13:28:37;;;;;;;0.50;0.50;;;30.60;36.10;;;;;;5017034;28;20029;-77
2022/06/01 13:31:03;;;;;;;1.10;0.40;;;30.70;34.50;;;;;;5017004;28;20046;-77
2022/06/01 13:33:35;;;;;;;0.65;0.57;;;29.80;35.20;;;;;;5015654;28;20026;-76
2022/06/01 13:36:04;;;;;;;1.13;0.50;;;29.20;37.10;;;;;;5016662;28;20036;-77
2022/06/01 13:38:42;;;;;;;0.57;0.43;;;28.60;37.50;;;;;;5016817;28;20022;-77
2022/06/01 13:41:33;;;;;;;0.82;0.40;;;27.90;38.20;;;;;;5015517;28;20036;-76
2022/06/01 13:44:02;;;;;;;0.50;0.50;;;27.80;38.50;;;;;;5016641;28;20026;-76
2022/06/01 13:46:35;;;;;;;1.23;0.50;;;27.90;38.20;;;;;;5031716;28;20087;-76